Lake Katonah, New York
Current Conditions -  °F | °C
As of 12:53 PM on Thursday 30 Oct 2014 (Local Time) from KDXR Reporting Station
Clear Clear  
Wind Chill: 55°   Ceiling: Unl
Heat Index: 55°   Visibility: 10mi
Dew Point: 36°   Wind: 6mph
Humidity: 49%   Direction: NA
Pressure: 29.98"   Gusts: NA
Location:  41.2685°N, 73.6548°W
Report Text: KDXR 301653Z VRB05KT 10SM CLR 13/02 A2998 RMK AO2 SLP154 T01280022
Loading
Personal Weather Stations






























Interactive Weather Map
Tropical Storm Tracking
New forecast layout! Learn more

10-Day Weather Forecast

Advertisements
Track Severe Weather on mobile